sensor_id;sensor_type;location;lat;lon;timestamp;P1;durP1;ratioP1;P2;durP2;ratioP2
8777;SDS011;4425;50.872;4.712;2024-03-25T00:00:40;10.03;;;6.50;;
8777;SDS011;4425;50.872;4.712;2024-03-25T00:03:07;7.90;;;5.57;;
8777;SDS011;4425;50.872;4.712;2024-03-25T00:05:33;8.67;;;5.73;;
8777;SDS011;4425;50.872;4.712;2024-03-25T00:08:00;7.97;;;4.80;;
8777;SDS011;4425;50.872;4.712;2024-03-25T00:10:26;9.63;;;5.53;;
8777;SDS011;4425;50.872;4.712;2024-03-25T00:12:53;9.83;;;6.07;;
8777;SDS011;4425;50.872;4.712;2024-03-25T00:15:21;7.70;;;6.50;;
8777;SDS011;4425;50.872;4.712;2024-03-25T00:17:50;11.53;;;6.47;;
8777;SDS011;4425;50.872;4.712;2024-03-25T00:20:16;13.30;;;6.50;;
8777;SDS011;4425;50.872;4.712;2024-03-25T00:22:43;10.67;;;5.90;;
8777;SDS011;4425;50.872;4.712;2024-03-25T00:25:09;9.30;;;6.20;;
8777;SDS011;4425;50.872;4.712;2024-03-25T00:27:36;12.50;;;6.53;;
8777;SDS011;4425;50.872;4.712;2024-03-25T00:30:02;12.37;;;6.73;;
8777;SDS011;4425;50.872;4.712;2024-03-25T00:32:30;10.10;;;6.93;;
8777;SDS011;4425;50.872;4.712;2024-03-25T00:34:57;10.83;;;6.03;;
8777;SDS011;4425;50.872;4.712;2024-03-25T00:37:24;9.50;;;6.80;;
8777;SDS011;4425;50.872;4.712;2024-03-25T00:39:50;10.97;;;6.47;;
8777;SDS011;4425;50.872;4.712;2024-03-25T00:42:17;7.33;;;5.17;;
8777;SDS011;4425;50.872;4.712;2024-03-25T00:44:43;8.03;;;6.43;;
8777;SDS011;4425;50.872;4.712;2024-03-25T00:47:10;9.87;;;6.67;;
8777;SDS011;4425;50.872;4.712;2024-03-25T00:49:36;9.90;;;6.77;;
8777;SDS011;4425;50.872;4.712;2024-03-25T08:11:02;15.00;;;7.70;;
8777;SDS011;4425;50.872;4.712;2024-03-25T08:13:28;19.07;;;6.77;;
8777;SDS011;4425;50.872;4.712;2024-03-25T08:15:54;20.17;;;6.93;;
8777;SDS011;4425;50.872;4.712;2024-03-25T08:18:20;20.43;;;6.50;;
8777;SDS011;4425;50.872;4.712;2024-03-25T08:20:46;36.97;;;7.20;;
8777;SDS011;4425;50.872;4.712;2024-03-25T08:23:12;27.53;;;7.63;;
8777;SDS011;4425;50.872;4.712;2024-03-25T08:25:38;22.93;;;7.20;;
8777;SDS011;4425;50.872;4.712;2024-03-25T08:28:06;15.80;;;6.23;;
8777;SDS011;4425;50.872;4.712;2024-03-25T08:30:32;13.23;;;6.33;;
8777;SDS011;4425;50.872;4.712;2024-03-25T08:32:58;13.80;;;6.00;;
8777;SDS011;4425;50.872;4.712;2024-03-25T08:35:24;13.70;;;6.30;;
8777;SDS011;4425;50.872;4.712;2024-03-25T08:37:50;14.40;;;5.97;;
8777;SDS011;4425;50.872;4.712;2024-03-25T08:40:16;29.97;;;6.87;;
8777;SDS011;4425;50.872;4.712;2024-03-25T08:42:42;11.00;;;6.03;;
8777;SDS011;4425;50.872;4.712;2024-03-25T08:45:09;13.73;;;5.73;;
8777;SDS011;4425;50.872;4.712;2024-03-25T08:47:35;11.43;;;5.80;;
8777;SDS011;4425;50.872;4.712;2024-03-25T08:50:01;13.40;;;5.03;;
8777;SDS011;4425;50.872;4.712;2024-03-25T08:52:27;17.13;;;6.23;;
8777;SDS011;4425;50.872;4.712;2024-03-25T08:54:53;18.87;;;6.13;;
8777;SDS011;4425;50.872;4.712;2024-03-25T08:57:19;40.77;;;7.97;;
8777;SDS011;4425;50.872;4.712;2024-03-25T08:59:45;26.47;;;6.50;;
8777;SDS011;4425;50.872;4.712;2024-03-25T09:02:12;22.03;;;5.60;;
8777;SDS011;4425;50.872;4.712;2024-03-25T09:04:38;13.60;;;5.70;;
8777;SDS011;4425;50.872;4.712;2024-03-25T09:07:04;9.27;;;5.30;;
8777;SDS011;4425;50.872;4.712;2024-03-25T09:09:30;15.03;;;5.57;;
8777;SDS011;4425;50.872;4.712;2024-03-25T09:12:15;13.83;;;6.07;;
8777;SDS011;4425;50.872;4.712;2024-03-25T09:14:41;13.70;;;5.57;;
8777;SDS011;4425;50.872;4.712;2024-03-25T09:17:07;13.77;;;5.63;;
8777;SDS011;4425;50.872;4.712;2024-03-25T09:19:34;15.30;;;6.13;;
8777;SDS011;4425;50.872;4.712;2024-03-25T09:22:00;21.57;;;6.70;;
8777;SDS011;4425;50.872;4.712;2024-03-25T09:24:26;17.87;;;5.70;;
8777;SDS011;4425;50.872;4.712;2024-03-25T09:26:52;13.47;;;5.07;;
8777;SDS011;4425;50.872;4.712;2024-03-25T09:29:18;11.17;;;4.63;;
8777;SDS011;4425;50.872;4.712;2024-03-25T09:31:44;10.03;;;4.10;;
8777;SDS011;4425;50.872;4.712;2024-03-25T09:34:10;14.17;;;5.20;;
8777;SDS011;4425;50.872;4.712;2024-03-25T09:36:37;12.50;;;5.27;;
8777;SDS011;4425;50.872;4.712;2024-03-25T09:39:03;15.43;;;5.63;;
8777;SDS011;4425;50.872;4.712;2024-03-25T09:41:30;18.73;;;5.40;;
8777;SDS011;4425;50.872;4.712;2024-03-25T09:43:56;11.00;;;5.20;;
8777;SDS011;4425;50.872;4.712;2024-03-25T09:46:22;15.40;;;4.10;;
8777;SDS011;4425;50.872;4.712;2024-03-25T09:48:49;13.77;;;4.90;;
8777;SDS011;4425;50.872;4.712;2024-03-25T09:51:17;11.43;;;3.80;;
8777;SDS011;4425;50.872;4.712;2024-03-25T09:53:46;11.70;;;4.27;;
8777;SDS011;4425;50.872;4.712;2024-03-25T09:56:12;6.60;;;4.37;;
8777;SDS011;4425;50.872;4.712;2024-03-25T09:58:38;9.70;;;4.27;;
8777;SDS011;4425;50.872;4.712;2024-03-25T10:01:05;7.17;;;3.93;;
8777;SDS011;4425;50.872;4.712;2024-03-25T10:03:31;8.83;;;3.80;;
8777;SDS011;4425;50.872;4.712;2024-03-25T10:05:57;12.37;;;4.20;;
8777;SDS011;4425;50.872;4.712;2024-03-25T10:08:23;14.63;;;4.33;;
8777;SDS011;4425;50.872;4.712;2024-03-25T10:10:51;16.07;;;5.27;;
8777;SDS011;4425;50.872;4.712;2024-03-25T10:13:17;8.90;;;3.40;;
8777;SDS011;4425;50.872;4.712;2024-03-25T10:15:43;6.03;;;3.50;;
8777;SDS011;4425;50.872;4.712;2024-03-25T10:18:12;9.50;;;4.07;;
8777;SDS011;4425;50.872;4.712;2024-03-25T10:20:38;7.80;;;4.47;;
8777;SDS011;4425;50.872;4.712;2024-03-25T10:23:12;11.60;;;3.67;;
8777;SDS011;4425;50.872;4.712;2024-03-25T10:25:38;11.83;;;4.00;;
8777;SDS011;4425;50.872;4.712;2024-03-25T10:28:06;7.13;;;3.87;;
8777;SDS011;4425;50.872;4.712;2024-03-25T10:30:33;6.23;;;4.27;;
8777;SDS011;4425;50.872;4.712;2024-03-25T10:32:59;8.93;;;4.47;;
8777;SDS011;4425;50.872;4.712;2024-03-25T10:35:26;10.97;;;4.47;;
8777;SDS011;4425;50.872;4.712;2024-03-25T10:37:54;7.43;;;4.43;;
8777;SDS011;4425;50.872;4.712;2024-03-25T10:40:26;9.60;;;4.17;;
8777;SDS011;4425;50.872;4.712;2024-03-25T10:42:55;10.13;;;4.40;;
8777;SDS011;4425;50.872;4.712;2024-03-25T10:45:33;8.07;;;4.17;;
8777;SDS011;4425;50.872;4.712;2024-03-25T10:48:01;11.27;;;4.30;;
8777;SDS011;4425;50.872;4.712;2024-03-25T10:50:29;10.03;;;4.63;;
8777;SDS011;4425;50.872;4.712;2024-03-25T10:52:56;17.77;;;3.97;;
8777;SDS011;4425;50.872;4.712;2024-03-25T10:55:24;6.17;;;3.37;;
8777;SDS011;4425;50.872;4.712;2024-03-25T10:57:51;7.17;;;3.00;;
8777;SDS011;4425;50.872;4.712;2024-03-25T11:00:19;5.00;;;2.93;;
8777;SDS011;4425;50.872;4.712;2024-03-25T11:02:49;5.40;;;2.70;;
8777;SDS011;4425;50.872;4.712;2024-03-25T11:05:17;4.10;;;2.47;;
8777;SDS011;4425;50.872;4.712;2024-03-25T11:07:44;6.70;;;2.80;;
8777;SDS011;4425;50.872;4.712;2024-03-25T11:10:10;5.47;;;2.70;;
8777;SDS011;4425;50.872;4.712;2024-03-25T11:12:37;5.13;;;2.57;;
8777;SDS011;4425;50.872;4.712;2024-03-25T11:15:05;6.87;;;2.80;;
8777;SDS011;4425;50.872;4.712;2024-03-25T11:17:32;6.63;;;2.90;;
8777;SDS011;4425;50.872;4.712;2024-03-25T11:20:13;2.77;;;2.53;;
8777;SDS011;4425;50.872;4.712;2024-03-25T11:22:48;7.87;;;2.83;;
8777;SDS011;4425;50.872;4.712;2024-03-25T11:25:14;5.57;;;2.53;;
8777;SDS011;4425;50.872;4.712;2024-03-25T11:27:42;13.13;;;2.80;;
8777;SDS011;4425;50.872;4.712;2024-03-25T11:30:09;5.53;;;3.10;;
8777;SDS011;4425;50.872;4.712;2024-03-25T11:32:43;3.63;;;2.73;;
8777;SDS011;4425;50.872;4.712;2024-03-25T11:35:10;5.07;;;2.67;;
8777;SDS011;4425;50.872;4.712;2024-03-25T11:37:39;7.93;;;2.97;;
8777;SDS011;4425;50.872;4.712;2024-03-25T11:40:06;4.40;;;2.43;;
8777;SDS011;4425;50.872;4.712;2024-03-25T11:42:32;3.53;;;2.40;;
8777;SDS011;4425;50.872;4.712;2024-03-25T11:44:59;8.00;;;2.13;;
8777;SDS011;4425;50.872;4.712;2024-03-25T11:47:26;8.60;;;2.40;;
8777;SDS011;4425;50.872;4.712;2024-03-25T11:49:52;4.37;;;2.37;;
8777;SDS011;4425;50.872;4.712;2024-03-25T11:52:20;3.20;;;2.30;;
8777;SDS011;4425;50.872;4.712;2024-03-25T11:54:53;5.97;;;2.43;;
8777;SDS011;4425;50.872;4.712;2024-03-25T11:57:19;5.83;;;2.50;;
8777;SDS011;4425;50.872;4.712;2024-03-25T11:59:46;4.20;;;2.80;;
8777;SDS011;4425;50.872;4.712;2024-03-25T12:02:12;4.03;;;2.67;;
8777;SDS011;4425;50.872;4.712;2024-03-25T12:04:41;17.27;;;3.50;;
8777;SDS011;4425;50.872;4.712;2024-03-25T12:07:10;4.47;;;2.60;;
8777;SDS011;4425;50.872;4.712;2024-03-25T12:09:38;5.60;;;2.20;;
8777;SDS011;4425;50.872;4.712;2024-03-25T12:12:22;5.43;;;2.90;;
8777;SDS011;4425;50.872;4.712;2024-03-25T12:14:49;4.67;;;2.23;;
8777;SDS011;4425;50.872;4.712;2024-03-25T12:17:15;8.10;;;2.53;;
8777;SDS011;4425;50.872;4.712;2024-03-25T12:19:42;4.60;;;2.50;;
8777;SDS011;4425;50.872;4.712;2024-03-25T12:22:08;3.70;;;2.37;;
8777;SDS011;4425;50.872;4.712;2024-03-25T12:24:34;3.20;;;2.23;;
8777;SDS011;4425;50.872;4.712;2024-03-25T12:27:01;7.87;;;2.50;;
8777;SDS011;4425;50.872;4.712;2024-03-25T12:29:27;3.37;;;2.10;;
8777;SDS011;4425;50.872;4.712;2024-03-25T12:31:54;4.90;;;2.43;;
8777;SDS011;4425;50.872;4.712;2024-03-25T12:34:20;5.97;;;3.30;;
8777;SDS011;4425;50.872;4.712;2024-03-25T12:36:47;3.00;;;2.00;;
8777;SDS011;4425;50.872;4.712;2024-03-25T12:39:16;8.83;;;2.40;;
8777;SDS011;4425;50.872;4.712;2024-03-25T12:41:43;11.20;;;2.90;;
8777;SDS011;4425;50.872;4.712;2024-03-25T12:44:11;4.33;;;2.67;;
8777;SDS011;4425;50.872;4.712;2024-03-25T12:46:37;4.97;;;2.50;;
8777;SDS011;4425;50.872;4.712;2024-03-25T12:49:04;3.63;;;2.30;;
8777;SDS011;4425;50.872;4.712;2024-03-25T12:51:30;4.33;;;2.30;;
8777;SDS011;4425;50.872;4.712;2024-03-25T12:53:56;5.73;;;2.30;;
8777;SDS011;4425;50.872;4.712;2024-03-25T12:56:22;7.23;;;2.33;;
8777;SDS011;4425;50.872;4.712;2024-03-25T12:58:49;5.00;;;2.47;;
8777;SDS011;4425;50.872;4.712;2024-03-25T13:01:16;10.20;;;2.70;;
8777;SDS011;4425;50.872;4.712;2024-03-25T13:03:42;3.47;;;2.57;;
8777;SDS011;4425;50.872;4.712;2024-03-25T13:06:08;4.57;;;2.27;;
8777;SDS011;4425;50.872;4.712;2024-03-25T13:08:34;5.23;;;2.57;;
8777;SDS011;4425;50.872;4.712;2024-03-25T13:11:00;3.77;;;2.10;;
8777;SDS011;4425;50.872;4.712;2024-03-25T13:13:26;4.50;;;2.07;;
8777;SDS011;4425;50.872;4.712;2024-03-25T13:15:52;8.47;;;2.50;;
8777;SDS011;4425;50.872;4.712;2024-03-25T13:18:20;6.27;;;2.57;;
8777;SDS011;4425;50.872;4.712;2024-03-25T13:20:46;9.10;;;3.17;;
8777;SDS011;4425;50.872;4.712;2024-03-25T13:23:12;2.17;;;2.00;;
8777;SDS011;4425;50.872;4.712;2024-03-25T13:25:39;2.53;;;2.20;;
8777;SDS011;4425;50.872;4.712;2024-03-25T13:28:05;3.33;;;2.40;;
8777;SDS011;4425;50.872;4.712;2024-03-25T13:30:31;2.20;;;2.00;;
8777;SDS011;4425;50.872;4.712;2024-03-25T13:32:57;2.57;;;2.37;;
8777;SDS011;4425;50.872;4.712;2024-03-25T13:35:25;4.30;;;2.37;;
8777;SDS011;4425;50.872;4.712;2024-03-25T13:37:51;4.70;;;2.30;;
8777;SDS011;4425;50.872;4.712;2024-03-25T13:40:17;4.60;;;2.17;;
8777;SDS011;4425;50.872;4.712;2024-03-25T13:42:43;5.40;;;2.47;;
8777;SDS011;4425;50.872;4.712;2024-03-25T13:45:09;14.43;;;3.90;;
8777;SDS011;4425;50.872;4.712;2024-03-25T13:47:35;5.17;;;2.13;;
8777;SDS011;4425;50.872;4.712;2024-03-25T13:50:02;2.53;;;2.03;;
8777;SDS011;4425;50.872;4.712;2024-03-25T13:52:29;5.83;;;2.60;;
8777;SDS011;4425;50.872;4.712;2024-03-25T13:54:55;4.67;;;2.27;;
8777;SDS011;4425;50.872;4.712;2024-03-25T13:57:21;3.50;;;2.25;;
8777;SDS011;4425;50.872;4.712;2024-03-25T13:59:48;3.13;;;2.03;;
8777;SDS011;4425;50.872;4.712;2024-03-25T14:02:15;4.90;;;2.10;;
8777;SDS011;4425;50.872;4.712;2024-03-25T14:04:41;2.03;;;1.83;;
8777;SDS011;4425;50.872;4.712;2024-03-25T14:07:07;9.83;;;2.53;;
8777;SDS011;4425;50.872;4.712;2024-03-25T14:09:34;4.73;;;2.10;;
8777;SDS011;4425;50.872;4.712;2024-03-25T14:12:00;11.53;;;2.23;;
8777;SDS011;4425;50.872;4.712;2024-03-25T14:14:26;2.00;;;1.90;;
8777;SDS011;4425;50.872;4.712;2024-03-25T14:16:52;6.53;;;2.10;;
8777;SDS011;4425;50.872;4.712;2024-03-25T14:19:18;4.83;;;2.20;;
8777;SDS011;4425;50.872;4.712;2024-03-25T14:21:44;4.07;;;2.20;;
8777;SDS011;4425;50.872;4.712;2024-03-25T14:24:10;5.47;;;2.13;;
8777;SDS011;4425;50.872;4.712;2024-03-25T14:26:38;2.07;;;1.80;;
8777;SDS011;4425;50.872;4.712;2024-03-25T14:29:03;5.07;;;1.70;;
8777;SDS011;4425;50.872;4.712;2024-03-25T14:31:30;2.03;;;1.90;;
8777;SDS011;4425;50.872;4.712;2024-03-25T14:33:56;3.57;;;2.23;;
8777;SDS011;4425;50.872;4.712;2024-03-25T14:36:23;2.20;;;2.00;;
8777;SDS011;4425;50.872;4.712;2024-03-25T14:38:49;4.00;;;1.97;;
8777;SDS011;4425;50.872;4.712;2024-03-25T14:41:17;1.87;;;1.67;;
8777;SDS011;4425;50.872;4.712;2024-03-25T14:43:46;3.53;;;2.10;;
8777;SDS011;4425;50.872;4.712;2024-03-25T14:46:12;2.43;;;1.90;;
8777;SDS011;4425;50.872;4.712;2024-03-25T14:48:37;2.50;;;2.00;;
8777;SDS011;4425;50.872;4.712;2024-03-25T14:51:04;3.50;;;2.10;;
8777;SDS011;4425;50.872;4.712;2024-03-25T14:53:30;5.47;;;2.10;;
8777;SDS011;4425;50.872;4.712;2024-03-25T14:55:56;3.13;;;1.80;;
8777;SDS011;4425;50.872;4.712;2024-03-25T14:58:22;2.67;;;1.70;;
8777;SDS011;4425;50.872;4.712;2024-03-25T15:00:49;7.60;;;1.70;;
8777;SDS011;4425;50.872;4.712;2024-03-25T15:03:15;2.30;;;1.63;;
8777;SDS011;4425;50.872;4.712;2024-03-25T15:05:41;2.77;;;1.80;;
8777;SDS011;4425;50.872;4.712;2024-03-25T15:08:07;4.50;;;1.83;;
8777;SDS011;4425;50.872;4.712;2024-03-25T15:10:33;3.37;;;1.50;;
8777;SDS011;4425;50.872;4.712;2024-03-25T15:12:59;2.23;;;1.50;;
8777;SDS011;4425;50.872;4.712;2024-03-25T15:15:25;2.77;;;1.50;;
8777;SDS011;4425;50.872;4.712;2024-03-25T15:17:53;1.63;;;1.53;;
8777;SDS011;4425;50.872;4.712;2024-03-25T15:20:19;1.60;;;1.50;;
8777;SDS011;4425;50.872;4.712;2024-03-25T15:22:45;1.60;;;1.50;;
8777;SDS011;4425;50.872;4.712;2024-03-25T15:25:11;3.40;;;1.60;;
8777;SDS011;4425;50.872;4.712;2024-03-25T15:27:37;1.83;;;1.73;;
8777;SDS011;4425;50.872;4.712;2024-03-25T15:30:04;1.70;;;1.60;;
8777;SDS011;4425;50.872;4.712;2024-03-25T15:32:31;2.77;;;1.70;;
8777;SDS011;4425;50.872;4.712;2024-03-25T15:34:59;2.20;;;1.50;;
8777;SDS011;4425;50.872;4.712;2024-03-25T15:37:25;1.80;;;1.70;;
8777;SDS011;4425;50.872;4.712;2024-03-25T15:39:52;2.87;;;1.67;;
8777;SDS011;4425;50.872;4.712;2024-03-25T15:42:18;1.60;;;1.50;;
8777;SDS011;4425;50.872;4.712;2024-03-25T15:44:44;2.60;;;1.80;;
8777;SDS011;4425;50.872;4.712;2024-03-25T15:47:10;1.87;;;1.60;;
8777;SDS011;4425;50.872;4.712;2024-03-25T15:49:36;1.43;;;1.40;;
8777;SDS011;4425;50.872;4.712;2024-03-25T15:52:04;2.50;;;1.73;;
8777;SDS011;4425;50.872;4.712;2024-03-25T15:54:30;1.47;;;1.40;;
8777;SDS011;4425;50.872;4.712;2024-03-25T15:56:56;2.00;;;1.43;;
8777;SDS011;4425;50.872;4.712;2024-03-25T15:59:22;1.60;;;1.50;;
8777;SDS011;4425;50.872;4.712;2024-03-25T16:01:48;1.60;;;1.37;;
8777;SDS011;4425;50.872;4.712;2024-03-25T16:04:14;1.90;;;1.57;;
8777;SDS011;4425;50.872;4.712;2024-03-25T16:06:40;1.50;;;1.50;;
8777;SDS011;4425;50.872;4.712;2024-03-25T16:09:07;1.60;;;1.50;;
8777;SDS011;4425;50.872;4.712;2024-03-25T16:11:33;2.23;;;1.60;;
8777;SDS011;4425;50.872;4.712;2024-03-25T16:13:59;6.23;;;1.87;;
8777;SDS011;4425;50.872;4.712;2024-03-25T16:16:25;3.10;;;1.50;;
8777;SDS011;4425;50.872;4.712;2024-03-25T16:18:52;2.47;;;1.87;;
8777;SDS011;4425;50.872;4.712;2024-03-25T16:21:18;1.63;;;1.50;;
8777;SDS011;4425;50.872;4.712;2024-03-25T16:23:44;1.60;;;1.50;;
8777;SDS011;4425;50.872;4.712;2024-03-25T16:26:12;2.83;;;1.70;;
8777;SDS011;4425;50.872;4.712;2024-03-25T16:28:38;2.37;;;1.77;;
8777;SDS011;4425;50.872;4.712;2024-03-25T16:31:04;3.70;;;1.67;;
8777;SDS011;4425;50.872;4.712;2024-03-25T16:33:30;2.60;;;1.90;;
8777;SDS011;4425;50.872;4.712;2024-03-25T16:35:56;1.90;;;1.80;;
8777;SDS011;4425;50.872;4.712;2024-03-25T16:38:22;5.70;;;1.60;;
8777;SDS011;4425;50.872;4.712;2024-03-25T16:40:49;2.53;;;1.83;;
8777;SDS011;4425;50.872;4.712;2024-03-25T16:43:16;2.10;;;1.53;;
8777;SDS011;4425;50.872;4.712;2024-03-25T16:45:42;1.70;;;1.60;;
8777;SDS011;4425;50.872;4.712;2024-03-25T16:48:08;1.83;;;1.73;;
8777;SDS011;4425;50.872;4.712;2024-03-25T16:50:35;3.67;;;1.80;;
8777;SDS011;4425;50.872;4.712;2024-03-25T16:53:01;4.30;;;2.00;;
8777;SDS011;4425;50.872;4.712;2024-03-25T16:55:27;2.93;;;1.47;;
8777;SDS011;4425;50.872;4.712;2024-03-25T16:57:53;2.57;;;1.60;;
8777;SDS011;4425;50.872;4.712;2024-03-25T17:00:20;4.27;;;1.90;;
8777;SDS011;4425;50.872;4.712;2024-03-25T17:02:46;1.57;;;1.57;;
8777;SDS011;4425;50.872;4.712;2024-03-25T17:05:12;1.77;;;1.67;;
8777;SDS011;4425;50.872;4.712;2024-03-25T17:07:39;2.33;;;1.60;;
8777;SDS011;4425;50.872;4.712;2024-03-25T17:10:05;3.33;;;1.70;;
8777;SDS011;4425;50.872;4.712;2024-03-25T17:12:32;1.50;;;1.40;;
8777;SDS011;4425;50.872;4.712;2024-03-25T17:14:58;1.70;;;1.60;;
8777;SDS011;4425;50.872;4.712;2024-03-25T17:17:25;2.77;;;1.60;;
8777;SDS011;4425;50.872;4.712;2024-03-25T17:19:51;3.90;;;1.83;;
8777;SDS011;4425;50.872;4.712;2024-03-25T17:22:17;2.50;;;1.37;;
8777;SDS011;4425;50.872;4.712;2024-03-25T17:24:43;2.43;;;1.73;;
8777;SDS011;4425;50.872;4.712;2024-03-25T17:27:10;1.90;;;1.80;;
8777;SDS011;4425;50.872;4.712;2024-03-25T17:29:36;2.20;;;2.00;;
8777;SDS011;4425;50.872;4.712;2024-03-25T17:32:02;3.47;;;2.17;;
8777;SDS011;4425;50.872;4.712;2024-03-25T17:34:30;4.53;;;1.90;;
8777;SDS011;4425;50.872;4.712;2024-03-25T17:36:56;1.90;;;1.80;;
8777;SDS011;4425;50.872;4.712;2024-03-25T17:39:22;2.50;;;1.93;;
8777;SDS011;4425;50.872;4.712;2024-03-25T17:41:48;3.87;;;2.00;;
8777;SDS011;4425;50.872;4.712;2024-03-25T17:44:14;4.10;;;2.03;;
8777;SDS011;4425;50.872;4.712;2024-03-25T17:46:40;2.50;;;2.30;;
8777;SDS011;4425;50.872;4.712;2024-03-25T17:49:06;6.43;;;2.30;;
8777;SDS011;4425;50.872;4.712;2024-03-25T17:51:33;3.87;;;2.13;;
8777;SDS011;4425;50.872;4.712;2024-03-25T17:53:59;4.47;;;2.27;;
8777;SDS011;4425;50.872;4.712;2024-03-25T17:56:25;2.10;;;1.90;;
8777;SDS011;4425;50.872;4.712;2024-03-25T17:58:51;2.20;;;2.00;;
8777;SDS011;4425;50.872;4.712;2024-03-25T18:01:17;4.83;;;2.40;;
8777;SDS011;4425;50.872;4.712;2024-03-25T18:03:43;2.10;;;2.00;;
8777;SDS011;4425;50.872;4.712;2024-03-25T18:06:09;1.90;;;1.80;;
8777;SDS011;4425;50.872;4.712;2024-03-25T18:08:37;2.20;;;1.87;;
8777;SDS011;4425;50.872;4.712;2024-03-25T18:11:03;1.80;;;1.70;;
8777;SDS011;4425;50.872;4.712;2024-03-25T18:13:29;3.37;;;2.00;;
8777;SDS011;4425;50.872;4.712;2024-03-25T18:15:55;4.10;;;2.00;;
8777;SDS011;4425;50.872;4.712;2024-03-25T18:18:22;2.87;;;1.80;;
8777;SDS011;4425;50.872;4.712;2024-03-25T18:20:48;3.30;;;2.10;;
8777;SDS011;4425;50.872;4.712;2024-03-25T18:23:14;2.73;;;1.80;;
8777;SDS011;4425;50.872;4.712;2024-03-25T18:25:42;3.13;;;2.03;;
8777;SDS011;4425;50.872;4.712;2024-03-25T18:28:09;3.37;;;1.90;;
8777;SDS011;4425;50.872;4.712;2024-03-25T18:30:38;3.63;;;2.00;;
8777;SDS011;4425;50.872;4.712;2024-03-25T18:33:04;3.30;;;2.03;;
8777;SDS011;4425;50.872;4.712;2024-03-25T18:35:33;3.83;;;2.00;;
8777;SDS011;4425;50.872;4.712;2024-03-25T18:38:00;3.30;;;2.20;;
8777;SDS011;4425;50.872;4.712;2024-03-25T18:40:26;4.90;;;2.03;;
8777;SDS011;4425;50.872;4.712;2024-03-25T18:42:54;0.70;;;0.70;;
8777;SDS011;4425;50.872;4.712;2024-03-25T18:45:20;0.30;;;0.30;;
8777;SDS011;4425;50.872;4.712;2024-03-25T18:47:46;0.50;;;0.50;;
8777;SDS011;4425;50.872;4.712;2024-03-25T18:50:12;0.20;;;0.20;;
8777;SDS011;4425;50.872;4.712;2024-03-25T18:52:38;0.30;;;0.30;;
8777;SDS011;4425;50.872;4.712;2024-03-25T18:55:05;0.20;;;0.20;;
8777;SDS011;4425;50.872;4.712;2024-03-25T18:57:31;0.20;;;0.20;;
8777;SDS011;4425;50.872;4.712;2024-03-25T18:59:58;0.40;;;0.40;;
8777;SDS011;4425;50.872;4.712;2024-03-25T19:02:27;3.13;;;2.47;;
8777;SDS011;4425;50.872;4.712;2024-03-25T19:04:53;4.13;;;2.47;;
8777;SDS011;4425;50.872;4.712;2024-03-25T19:07:19;3.57;;;2.07;;
8777;SDS011;4425;50.872;4.712;2024-03-25T19:09:45;2.60;;;2.13;;
8777;SDS011;4425;50.872;4.712;2024-03-25T19:12:12;6.17;;;2.50;;
8777;SDS011;4425;50.872;4.712;2024-03-25T19:14:38;7.60;;;3.13;;
8777;SDS011;4425;50.872;4.712;2024-03-25T19:17:05;3.80;;;2.43;;
8777;SDS011;4425;50.872;4.712;2024-03-25T19:19:31;3.92;;;2.88;;
8777;SDS011;4425;50.872;4.712;2024-03-25T19:21:57;2.10;;;1.30;;
8777;SDS011;4425;50.872;4.712;2024-03-25T19:24:24;0.20;;;0.20;;
8777;SDS011;4425;50.872;4.712;2024-03-25T19:26:50;0.40;;;0.40;;
8777;SDS011;4425;50.872;4.712;2024-03-25T19:29:16;0.20;;;0.20;;
8777;SDS011;4425;50.872;4.712;2024-03-25T19:31:42;0.20;;;0.20;;
8777;SDS011;4425;50.872;4.712;2024-03-25T19:34:09;0.30;;;0.30;;
8777;SDS011;4425;50.872;4.712;2024-03-25T19:36:35;0.20;;;0.20;;
8777;SDS011;4425;50.872;4.712;2024-03-25T19:39:01;0.22;;;0.22;;
8777;SDS011;4425;50.872;4.712;2024-03-25T19:41:27;0.30;;;0.30;;
8777;SDS011;4425;50.872;4.712;2024-03-25T19:43:54;0.20;;;0.20;;
8777;SDS011;4425;50.872;4.712;2024-03-25T19:46:20;0.30;;;0.30;;
8777;SDS011;4425;50.872;4.712;2024-03-25T19:48:46;0.30;;;0.30;;
8777;SDS011;4425;50.872;4.712;2024-03-25T19:51:13;4.40;;;4.10;;
8777;SDS011;4425;50.872;4.712;2024-03-25T19:53:39;0.30;;;0.30;;
8777;SDS011;4425;50.872;4.712;2024-03-25T19:56:05;0.30;;;0.30;;
8777;SDS011;4425;50.872;4.712;2024-03-25T19:58:31;1.35;;;0.95;;
8777;SDS011;4425;50.872;4.712;2024-03-25T20:01:04;6.25;;;3.03;;
8777;SDS011;4425;50.872;4.712;2024-03-25T20:03:31;5.65;;;3.10;;
8777;SDS011;4425;50.872;4.712;2024-03-25T20:05:57;0.30;;;0.30;;
8777;SDS011;4425;50.872;4.712;2024-03-25T20:08:24;0.30;;;0.30;;
8777;SDS011;4425;50.872;4.712;2024-03-25T20:10:50;0.20;;;0.20;;
8777;SDS011;4425;50.872;4.712;2024-03-25T20:13:16;0.20;;;0.20;;
8777;SDS011;4425;50.872;4.712;2024-03-25T20:15:42;0.50;;;0.50;;
8777;SDS011;4425;50.872;4.712;2024-03-25T20:18:09;0.20;;;0.20;;
8777;SDS011;4425;50.872;4.712;2024-03-25T20:20:35;9.57;;;3.97;;
8777;SDS011;4425;50.872;4.712;2024-03-25T20:23:01;0.20;;;0.20;;
8777;SDS011;4425;50.872;4.712;2024-03-25T20:25:28;0.40;;;0.40;;
8777;SDS011;4425;50.872;4.712;2024-03-25T20:27:54;0.30;;;0.30;;
8777;SDS011;4425;50.872;4.712;2024-03-25T20:30:20;0.20;;;0.20;;
8777;SDS011;4425;50.872;4.712;2024-03-25T20:32:46;0.20;;;0.20;;
8777;SDS011;4425;50.872;4.712;2024-03-25T20:35:12;0.40;;;0.40;;
8777;SDS011;4425;50.872;4.712;2024-03-25T20:37:39;7.20;;;3.43;;
8777;SDS011;4425;50.872;4.712;2024-03-25T20:40:05;5.57;;;3.47;;
8777;SDS011;4425;50.872;4.712;2024-03-25T20:42:33;0.30;;;0.30;;
8777;SDS011;4425;50.872;4.712;2024-03-25T20:44:59;0.20;;;0.20;;
8777;SDS011;4425;50.872;4.712;2024-03-25T20:47:25;0.30;;;0.30;;
8777;SDS011;4425;50.872;4.712;2024-03-25T20:49:52;0.20;;;0.20;;
8777;SDS011;4425;50.872;4.712;2024-03-25T20:52:18;0.20;;;0.20;;
8777;SDS011;4425;50.872;4.712;2024-03-25T20:54:44;1.52;;;1.48;;
8777;SDS011;4425;50.872;4.712;2024-03-25T20:57:10;0.20;;;0.20;;
8777;SDS011;4425;50.872;4.712;2024-03-25T20:59:37;0.30;;;0.30;;
8777;SDS011;4425;50.872;4.712;2024-03-25T21:02:03;0.20;;;0.20;;
8777;SDS011;4425;50.872;4.712;2024-03-25T21:04:30;0.20;;;0.20;;
8777;SDS011;4425;50.872;4.712;2024-03-25T21:06:56;0.40;;;0.40;;
8777;SDS011;4425;50.872;4.712;2024-03-25T21:09:22;6.80;;;3.40;;
8777;SDS011;4425;50.872;4.712;2024-03-25T21:11:48;5.40;;;3.70;;
8777;SDS011;4425;50.872;4.712;2024-03-25T21:14:14;0.60;;;0.60;;
8777;SDS011;4425;50.872;4.712;2024-03-25T21:16:42;0.82;;;0.82;;
8777;SDS011;4425;50.872;4.712;2024-03-25T21:19:08;0.30;;;0.30;;
8777;SDS011;4425;50.872;4.712;2024-03-25T21:21:33;0.20;;;0.20;;
8777;SDS011;4425;50.872;4.712;2024-03-25T21:23:59;0.30;;;0.30;;
8777;SDS011;4425;50.872;4.712;2024-03-25T21:26:25;6.13;;;3.20;;
8777;SDS011;4425;50.872;4.712;2024-03-25T21:28:52;0.20;;;0.20;;
8777;SDS011;4425;50.872;4.712;2024-03-25T21:31:18;6.20;;;3.30;;
8777;SDS011;4425;50.872;4.712;2024-03-25T21:33:45;0.20;;;0.20;;
8777;SDS011;4425;50.872;4.712;2024-03-25T21:36:11;6.97;;;2.03;;
8777;SDS011;4425;50.872;4.712;2024-03-25T21:38:37;0.50;;;0.50;;
8777;SDS011;4425;50.872;4.712;2024-03-25T21:41:03;0.53;;;0.53;;
8777;SDS011;4425;50.872;4.712;2024-03-25T21:43:29;0.30;;;0.30;;
8777;SDS011;4425;50.872;4.712;2024-03-25T21:45:55;0.20;;;0.20;;
8777;SDS011;4425;50.872;4.712;2024-03-25T21:48:21;0.22;;;0.22;;
8777;SDS011;4425;50.872;4.712;2024-03-25T21:50:55;0.30;;;0.30;;
8777;SDS011;4425;50.872;4.712;2024-03-25T21:53:22;0.28;;;0.28;;
8777;SDS011;4425;50.872;4.712;2024-03-25T21:55:48;0.80;;;0.65;;
8777;SDS011;4425;50.872;4.712;2024-03-25T21:58:15;0.60;;;0.60;;
8777;SDS011;4425;50.872;4.712;2024-03-25T22:00:41;0.40;;;0.40;;
8777;SDS011;4425;50.872;4.712;2024-03-25T22:03:07;0.38;;;0.38;;
8777;SDS011;4425;50.872;4.712;2024-03-25T22:05:33;0.70;;;0.70;;
8777;SDS011;4425;50.872;4.712;2024-03-25T22:08:01;0.60;;;0.60;;
8777;SDS011;4425;50.872;4.712;2024-03-25T22:10:27;0.30;;;0.30;;
8777;SDS011;4425;50.872;4.712;2024-03-25T22:12:53;0.22;;;0.22;;
8777;SDS011;4425;50.872;4.712;2024-03-25T22:15:19;0.30;;;0.30;;
8777;SDS011;4425;50.872;4.712;2024-03-25T22:17:45;0.30;;;0.30;;
8777;SDS011;4425;50.872;4.712;2024-03-25T22:20:11;0.77;;;0.77;;
8777;SDS011;4425;50.872;4.712;2024-03-25T22:22:37;0.55;;;0.55;;
8777;SDS011;4425;50.872;4.712;2024-03-25T22:25:05;0.40;;;0.30;;
8777;SDS011;4425;50.872;4.712;2024-03-25T22:27:31;0.40;;;0.40;;